createdAt,value
2017-03-20T00:00:44.733Z,997.82
2017-03-20T00:01:44.670Z,997.87
2017-03-20T00:02:44.608Z,997.81
2017-03-20T00:03:44.545Z,997.85
2017-03-20T00:04:44.486Z,997.88
2017-03-20T00:05:44.423Z,997.83
2017-03-20T00:06:44.361Z,997.86
2017-03-20T00:07:44.297Z,997.89
2017-03-20T00:08:44.236Z,997.9
2017-03-20T00:09:44.174Z,997.91
2017-03-20T00:10:44.113Z,997.9
2017-03-20T00:11:44.050Z,997.98
2017-03-20T00:12:43.988Z,997.96
2017-03-20T00:13:43.927Z,997.98
2017-03-20T00:14:43.865Z,997.96
2017-03-20T00:15:43.802Z,998
2017-03-20T00:16:43.741Z,998.03
2017-03-20T00:17:43.679Z,998.03
2017-03-20T00:18:43.616Z,997.98
2017-03-20T00:19:43.555Z,998.09
2017-03-20T00:20:43.492Z,998.06
2017-03-20T00:21:43.431Z,998.09
2017-03-20T00:22:43.369Z,998.05
2017-03-20T00:23:43.307Z,998.08
2017-03-20T00:24:43.245Z,998.04
2017-03-20T00:25:43.182Z,998.1
2017-03-20T00:26:43.120Z,998.11
2017-03-20T00:27:43.060Z,998.05
2017-03-20T00:28:42.997Z,998.03
2017-03-20T00:29:42.935Z,998.06
2017-03-20T00:30:42.872Z,998.05
2017-03-20T00:31:42.811Z,998.02
2017-03-20T00:32:42.747Z,998.12
2017-03-20T00:33:42.690Z,998.04
2017-03-20T00:34:42.623Z,998.14
2017-03-20T00:35:42.562Z,998.09
2017-03-20T00:36:42.499Z,998.11
2017-03-20T00:37:42.437Z,998.13
2017-03-20T00:38:42.376Z,998.13
2017-03-20T00:39:42.315Z,998.14
2017-03-20T00:40:42.252Z,998.16
2017-03-20T00:41:42.190Z,998.19
2017-03-20T00:42:42.130Z,998.21
2017-03-20T00:43:42.067Z,998.16
2017-03-20T00:44:42.006Z,998.23
2017-03-20T00:45:41.942Z,998.2
2017-03-20T00:46:41.881Z,998.21
2017-03-20T00:47:41.819Z,998.25
2017-03-20T00:48:41.757Z,998.26
2017-03-20T00:49:41.695Z,998.28
2017-03-20T00:50:41.633Z,998.24
2017-03-20T00:51:41.571Z,998.25
2017-03-20T00:52:41.509Z,998.2
2017-03-20T00:53:41.447Z,998.23
2017-03-20T00:54:41.386Z,998.26
2017-03-20T00:55:41.322Z,998.2
2017-03-20T00:56:41.262Z,998.24
2017-03-20T00:57:41.200Z,998.3
2017-03-20T00:58:41.138Z,998.29
2017-03-20T00:59:41.076Z,998.28
2017-03-20T01:01:10.478Z,998.3
2017-03-20T01:02:10.416Z,998.3
2017-03-20T01:03:10.353Z,998.29
2017-03-20T01:04:10.294Z,998.32
2017-03-20T01:05:10.228Z,998.3
2017-03-20T01:06:10.167Z,998.33
2017-03-20T01:07:10.104Z,998.3
2017-03-20T01:08:10.043Z,998.27
2017-03-20T01:09:09.981Z,998.32
2017-03-20T01:10:09.922Z,998.25
2017-03-20T01:11:09.856Z,998.28
2017-03-20T01:12:09.794Z,998.33
2017-03-20T01:13:09.732Z,998.31
2017-03-20T01:14:09.670Z,998.36
2017-03-20T01:15:09.607Z,998.3
2017-03-20T01:16:09.545Z,998.34
2017-03-20T01:17:09.484Z,998.34
2017-03-20T01:18:09.423Z,998.31
2017-03-20T01:19:09.360Z,998.31
2017-03-20T01:20:09.297Z,998.36
2017-03-20T01:21:09.236Z,998.41
2017-03-20T01:22:09.173Z,998.39
2017-03-20T01:23:09.112Z,998.38
2017-03-20T01:24:09.050Z,998.39
2017-03-20T01:25:08.989Z,998.38
2017-03-20T01:26:08.925Z,998.31
2017-03-20T01:27:08.863Z,998.32
2017-03-20T01:28:08.802Z,998.35
2017-03-20T01:29:08.740Z,998.41
2017-03-20T01:30:08.678Z,998.33
2017-03-20T01:31:08.621Z,998.33
2017-03-20T01:32:08.554Z,998.36
2017-03-20T01:33:08.491Z,998.36
2017-03-20T01:34:08.430Z,998.41
2017-03-20T01:35:08.368Z,998.37
2017-03-20T01:36:08.306Z,998.47
2017-03-20T01:37:08.243Z,998.45
2017-03-20T01:38:08.182Z,998.51
2017-03-20T01:39:08.120Z,998.43
2017-03-20T01:40:08.058Z,998.42
2017-03-20T01:41:07.995Z,998.45
2017-03-20T01:42:07.934Z,998.44
2017-03-20T01:43:07.872Z,998.51
2017-03-20T01:44:07.809Z,998.52
2017-03-20T01:45:07.764Z,998.52
2017-03-20T01:46:07.685Z,998.58
2017-03-20T01:47:07.623Z,998.55
2017-03-20T01:48:07.560Z,998.53
2017-03-20T01:49:07.500Z,998.47
2017-03-20T01:50:07.438Z,998.54
2017-03-20T01:51:07.375Z,998.56
2017-03-20T01:52:07.312Z,998.53
2017-03-20T01:53:07.251Z,998.5
2017-03-20T01:54:07.193Z,998.54
2017-03-20T01:55:07.130Z,998.53
2017-03-20T01:56:07.064Z,998.56
2017-03-20T01:57:07.003Z,998.57
2017-03-20T01:58:06.942Z,998.55
2017-03-20T01:59:06.879Z,998.51
2017-03-20T02:00:06.817Z,998.54
2017-03-20T02:01:06.756Z,998.54
2017-03-20T02:02:06.693Z,998.48
2017-03-20T02:03:06.631Z,998.46
2017-03-20T02:04:06.570Z,998.47
2017-03-20T02:05:06.507Z,998.52
2017-03-20T02:06:06.445Z,998.57
2017-03-20T02:07:06.384Z,998.55
2017-03-20T02:08:06.320Z,998.57
2017-03-20T02:09:06.260Z,998.6
2017-03-20T02:10:06.196Z,998.54
2017-03-20T02:11:06.135Z,998.52
2017-03-20T02:12:06.073Z,998.55
2017-03-20T02:13:06.011Z,998.54
2017-03-20T02:14:05.948Z,998.54
2017-03-20T02:15:05.886Z,998.53
2017-03-20T02:16:05.825Z,998.49
2017-03-20T02:17:05.762Z,998.5
2017-03-20T02:18:05.704Z,998.48
2017-03-20T02:19:05.639Z,998.46
2017-03-20T02:20:05.577Z,998.47
2017-03-20T02:21:05.514Z,998.47
2017-03-20T02:22:05.452Z,998.5
2017-03-20T02:23:05.391Z,998.5
2017-03-20T02:24:05.328Z,998.54
2017-03-20T02:25:05.270Z,998.56
2017-03-20T02:26:05.204Z,998.52
2017-03-20T02:27:05.143Z,998.52
2017-03-20T02:28:05.080Z,998.53
2017-03-20T02:29:05.019Z,998.53
2017-03-20T02:30:04.985Z,998.51
2017-03-20T02:31:04.895Z,998.51
2017-03-20T02:32:04.832Z,998.53
2017-03-20T02:33:04.771Z,998.54
2017-03-20T02:34:04.709Z,998.53
2017-03-20T02:35:04.647Z,998.54
2017-03-20T02:36:04.587Z,998.62
2017-03-20T02:37:04.525Z,998.58
2017-03-20T02:38:04.462Z,998.57
2017-03-20T02:39:04.399Z,998.6
2017-03-20T02:40:04.337Z,998.64
2017-03-20T02:41:04.275Z,998.67
2017-03-20T02:42:04.214Z,998.71
2017-03-20T02:43:04.152Z,998.68
2017-03-20T02:44:04.123Z,998.72
2017-03-20T02:45:04.026Z,998.72
2017-03-20T02:46:03.965Z,998.74
2017-03-20T02:47:03.902Z,998.75
2017-03-20T02:48:03.842Z,998.83
2017-03-20T02:49:03.780Z,998.86
2017-03-20T02:50:03.716Z,998.88
2017-03-20T02:51:03.654Z,998.9
2017-03-20T02:52:03.594Z,998.91
2017-03-20T02:53:03.531Z,998.89
2017-03-20T02:54:03.468Z,998.85
2017-03-20T02:55:03.406Z,998.87
2017-03-20T02:56:03.346Z,998.96
2017-03-20T02:57:03.282Z,998.95
2017-03-20T02:58:03.221Z,998.93
2017-03-20T02:59:03.159Z,998.97
2017-03-20T03:00:03.097Z,999
2017-03-20T03:01:03.034Z,998.98
2017-03-20T03:02:02.972Z,999.01
2017-03-20T03:03:02.911Z,999.02
2017-03-20T03:04:02.849Z,998.97
2017-03-20T03:05:03.088Z,998.96
2017-03-20T03:06:02.725Z,998.96
2017-03-20T03:07:02.664Z,998.95
2017-03-20T03:08:02.601Z,999.03
2017-03-20T03:09:02.539Z,999.04
2017-03-20T03:10:02.478Z,999.04
2017-03-20T03:11:02.415Z,999.06
2017-03-20T03:12:02.353Z,999.06
2017-03-20T03:13:02.291Z,999.05
2017-03-20T03:14:02.229Z,999.11
2017-03-20T03:15:02.168Z,999.14
2017-03-20T03:16:02.105Z,999.18
2017-03-20T03:17:02.042Z,999.22
2017-03-20T03:18:01.982Z,999.17
2017-03-20T03:19:01.919Z,999.18
2017-03-20T03:20:01.858Z,999.18
2017-03-20T03:21:01.794Z,999.21
2017-03-20T03:22:01.732Z,999.24
2017-03-20T03:23:01.670Z,999.28
2017-03-20T03:24:01.608Z,999.3
2017-03-20T03:25:01.547Z,999.33
2017-03-20T03:26:01.485Z,999.38
2017-03-20T03:27:01.422Z,999.32
2017-03-20T03:28:01.360Z,999.4
2017-03-20T03:29:01.299Z,999.37
2017-03-20T03:30:01.236Z,999.37
2017-03-20T03:31:01.175Z,999.43
2017-03-20T03:32:01.119Z,999.46
2017-03-20T03:33:01.052Z,999.45
2017-03-20T03:34:00.987Z,999.43
2017-03-20T03:35:00.927Z,999.44
2017-03-20T03:36:00.865Z,999.49
2017-03-20T03:37:00.804Z,999.47
2017-03-20T03:38:00.741Z,999.49
2017-03-20T03:39:00.678Z,999.54
2017-03-20T03:40:00.617Z,999.56
2017-03-20T03:41:00.555Z,999.56
2017-03-20T03:42:00.493Z,999.55
2017-03-20T03:43:00.431Z,999.58
2017-03-20T03:44:00.368Z,999.57
2017-03-20T03:45:00.306Z,999.66
2017-03-20T03:46:00.245Z,999.66
2017-03-20T03:47:00.182Z,999.64
2017-03-20T03:48:00.121Z,999.64
2017-03-20T03:49:00.059Z,999.63
2017-03-20T03:49:59.997Z,999.64
2017-03-20T03:50:59.935Z,999.65
2017-03-20T03:51:59.872Z,999.7
2017-03-20T03:52:59.809Z,999.69
2017-03-20T03:53:59.748Z,999.73
2017-03-20T03:54:59.687Z,999.72
2017-03-20T03:55:59.623Z,999.72
2017-03-20T03:56:59.562Z,999.73
2017-03-20T03:57:59.501Z,999.73
2017-03-20T03:58:59.439Z,999.73
2017-03-20T03:59:59.377Z,999.74
2017-03-20T04:00:59.315Z,999.69
2017-03-20T04:01:59.253Z,999.92
2017-03-20T04:02:59.190Z,999.83
2017-03-20T04:03:59.128Z,999.88
2017-03-20T04:04:59.067Z,999.87
2017-03-20T04:05:59.005Z,999.85
2017-03-20T04:06:58.942Z,999.87
2017-03-20T04:07:58.880Z,999.91
2017-03-20T04:08:58.819Z,999.93
2017-03-20T04:09:58.757Z,999.96
2017-03-20T04:10:58.695Z,999.96
2017-03-20T04:11:58.632Z,999.88
2017-03-20T04:12:58.572Z,999.89
2017-03-20T04:13:58.510Z,999.91
2017-03-20T04:14:58.447Z,999.85
2017-03-20T04:15:58.386Z,999.93
2017-03-20T04:16:58.323Z,999.92
2017-03-20T04:17:58.261Z,999.9
2017-03-20T04:18:58.198Z,999.9
2017-03-20T04:19:58.139Z,999.94
2017-03-20T04:20:58.074Z,999.93
2017-03-20T04:21:58.012Z,999.94
2017-03-20T04:22:57.950Z,999.91
2017-03-20T04:23:57.889Z,999.96
2017-03-20T04:24:57.837Z,999.97
2017-03-20T04:25:57.765Z,999.98
2017-03-20T04:26:57.704Z,999.98
2017-03-20T04:27:57.642Z,1000.04
2017-03-20T04:28:57.579Z,1000.02
2017-03-20T04:29:57.517Z,999.99
2017-03-20T04:30:57.457Z,1000.04
2017-03-20T04:31:57.392Z,1000.07
2017-03-20T04:32:57.329Z,1000.06
2017-03-20T04:33:57.269Z,1000.07
2017-03-20T04:34:57.207Z,1000.09
2017-03-20T04:35:57.145Z,1000.07
2017-03-20T04:36:57.091Z,1000.09
2017-03-20T04:37:57.021Z,1000.08
2017-03-20T04:38:56.959Z,1000.06
2017-03-20T04:39:56.896Z,1000.06
2017-03-20T04:40:56.834Z,1000.05
2017-03-20T04:41:56.774Z,1000.07
2017-03-20T04:42:56.709Z,1000.04
2017-03-20T04:43:56.649Z,1000.07
2017-03-20T04:44:56.585Z,1000.09
2017-03-20T04:45:56.524Z,1000.13
2017-03-20T04:46:56.462Z,1000.08
2017-03-20T04:47:56.400Z,1000.12
2017-03-20T04:48:56.338Z,1000.17
2017-03-20T04:49:56.276Z,1000.15
2017-03-20T04:50:56.213Z,1000.13
2017-03-20T04:51:56.152Z,1000.19
2017-03-20T04:52:56.090Z,1000.2
2017-03-20T04:53:56.027Z,1000.24
2017-03-20T04:54:55.965Z,1000.25
2017-03-20T04:55:55.904Z,1000.21
2017-03-20T04:56:55.842Z,1000.25
2017-03-20T04:57:55.779Z,1000.25
2017-03-20T04:58:55.717Z,1000.25
2017-03-20T04:59:55.655Z,1000.26
2017-03-20T05:00:55.592Z,1000.29
2017-03-20T05:01:55.530Z,1000.27
2017-03-20T05:02:55.469Z,1000.3
2017-03-20T05:03:55.406Z,1000.29
2017-03-20T05:04:55.345Z,1000.3
2017-03-20T05:05:55.282Z,1000.35
2017-03-20T05:06:55.221Z,1000.39
2017-03-20T05:07:55.159Z,1000.37
2017-03-20T05:08:55.096Z,1000.33
2017-03-20T05:09:55.034Z,1000.33
2017-03-20T05:10:54.972Z,1000.35
2017-03-20T05:11:54.910Z,1000.4
2017-03-20T05:12:54.848Z,1000.37
2017-03-20T05:13:54.786Z,1000.34
2017-03-20T05:14:54.724Z,1000.36
2017-03-20T05:15:54.661Z,1000.4
2017-03-20T05:16:54.599Z,1000.36
2017-03-20T05:17:54.538Z,1000.33
2017-03-20T05:18:54.478Z,1000.44
2017-03-20T05:19:54.413Z,1000.45
2017-03-20T05:20:54.351Z,1000.46
2017-03-20T05:21:54.289Z,1000.5
2017-03-20T05:22:54.228Z,1000.46
2017-03-20T05:23:54.165Z,1000.51
2017-03-20T05:24:54.104Z,1000.47
2017-03-20T05:25:54.041Z,1000.46
2017-03-20T05:26:53.978Z,1000.49
2017-03-20T05:27:53.917Z,1000.52
2017-03-20T05:28:53.857Z,1000.52
2017-03-20T05:29:53.800Z,1000.54
2017-03-20T05:30:53.734Z,1000.54
2017-03-20T05:31:53.667Z,1000.54
2017-03-20T05:32:53.606Z,1000.52
2017-03-20T05:33:53.545Z,1000.53
2017-03-20T05:34:53.482Z,1000.56
2017-03-20T05:35:53.420Z,1000.58
2017-03-20T05:36:53.358Z,1000.55
2017-03-20T05:37:53.296Z,1000.62
2017-03-20T05:38:53.234Z,1000.6
2017-03-20T05:39:53.172Z,1000.67
2017-03-20T05:40:53.110Z,1000.69
2017-03-20T05:41:53.047Z,1000.71
2017-03-20T05:42:52.986Z,1000.63
2017-03-20T05:43:52.924Z,1000.62
2017-03-20T05:44:52.862Z,1000.63
2017-03-20T05:45:52.800Z,1000.61
2017-03-20T05:46:52.738Z,1000.63
2017-03-20T05:47:52.676Z,1000.65
2017-03-20T05:48:52.614Z,1000.67
2017-03-20T05:49:52.551Z,1000.67
2017-03-20T05:50:52.489Z,1000.67
2017-03-20T05:51:52.429Z,1000.73
2017-03-20T05:52:52.375Z,1000.68
2017-03-20T05:53:52.304Z,1000.73
2017-03-20T05:54:52.242Z,1000.75
2017-03-20T05:55:52.179Z,1000.77
2017-03-20T05:56:52.117Z,1000.67
2017-03-20T05:57:52.055Z,1000.7
2017-03-20T05:58:51.995Z,1000.73
2017-03-20T05:59:51.930Z,1000.66
2017-03-20T06:00:51.868Z,1000.68
2017-03-20T06:01:51.807Z,1000.65
2017-03-20T06:02:51.745Z,1000.72
2017-03-20T06:03:51.682Z,1000.73
2017-03-20T06:04:51.621Z,1000.74
2017-03-20T06:05:51.559Z,1000.79
2017-03-20T06:06:51.497Z,1000.82
2017-03-20T06:07:51.435Z,1000.82
2017-03-20T06:08:51.373Z,1000.81
2017-03-20T06:09:51.311Z,1000.84
2017-03-20T06:10:51.248Z,1000.74
2017-03-20T06:11:51.186Z,1000.76
2017-03-20T06:12:51.174Z,1000.76
2017-03-20T06:13:51.063Z,1000.78
2017-03-20T06:14:51.000Z,1000.76
2017-03-20T06:15:50.938Z,1000.76
2017-03-20T06:16:50.877Z,1000.81
2017-03-20T06:17:50.814Z,1000.77
2017-03-20T06:18:50.752Z,1000.82
2017-03-20T06:19:50.691Z,1000.85
2017-03-20T06:20:50.628Z,1000.83
2017-03-20T06:21:50.565Z,1000.9
2017-03-20T06:22:50.503Z,1000.86
2017-03-20T06:23:50.442Z,1000.87
2017-03-20T06:24:50.380Z,1000.87
2017-03-20T06:25:50.317Z,1000.87
2017-03-20T06:26:50.256Z,1000.85
2017-03-20T06:27:50.194Z,1000.85
2017-03-20T06:28:50.131Z,1000.86
2017-03-20T06:29:50.069Z,1000.87
2017-03-20T06:30:50.007Z,1000.89
2017-03-20T06:31:49.945Z,1000.85
2017-03-20T06:32:49.883Z,1000.89
2017-03-20T06:33:49.822Z,1000.92
2017-03-20T06:34:49.760Z,1000.93
2017-03-20T06:35:49.733Z,1000.89
2017-03-20T06:36:49.634Z,1000.9
2017-03-20T06:37:49.573Z,1000.9
2017-03-20T06:38:49.512Z,1000.9
2017-03-20T06:39:49.450Z,1000.94
2017-03-20T06:40:49.386Z,1000.99
2017-03-20T06:41:49.327Z,1000.96
2017-03-20T06:42:49.264Z,1000.96
2017-03-20T06:43:49.201Z,1000.96
2017-03-20T06:44:49.138Z,1000.93
2017-03-20T06:45:49.076Z,1000.93
2017-03-20T06:46:49.015Z,1000.92
2017-03-20T06:47:48.951Z,1000.91
2017-03-20T06:48:48.891Z,1000.94
2017-03-20T06:49:48.829Z,1000.94
2017-03-20T06:50:48.766Z,1000.91
2017-03-20T06:51:48.705Z,1000.97
2017-03-20T06:52:48.643Z,1000.96
2017-03-20T06:53:48.581Z,1000.97
2017-03-20T06:54:48.519Z,1000.97
2017-03-20T06:55:48.456Z,1000.96
2017-03-20T06:56:48.394Z,1000.95
2017-03-20T06:57:48.333Z,1000.93
2017-03-20T06:58:48.272Z,1000.96
2017-03-20T06:59:48.208Z,1001.01
2017-03-20T07:00:48.146Z,1000.99
2017-03-20T07:01:48.084Z,1000.97
2017-03-20T07:02:48.022Z,1001.01
2017-03-20T07:03:47.961Z,1000.98
2017-03-20T07:04:47.899Z,1001.01
2017-03-20T07:05:47.836Z,1001.01
2017-03-20T07:06:47.773Z,1000.97
2017-03-20T07:07:47.712Z,1000.98
2017-03-20T07:08:47.651Z,1000.96
2017-03-20T07:09:47.588Z,1000.94
2017-03-20T07:10:47.526Z,1000.96
2017-03-20T07:11:47.464Z,1000.95
2017-03-20T07:12:47.402Z,1000.97
2017-03-20T07:13:47.340Z,1000.93
2017-03-20T07:14:47.278Z,1000.94
2017-03-20T07:15:47.217Z,1000.96
2017-03-20T07:16:47.155Z,1000.97
2017-03-20T07:17:47.092Z,1000.99
2017-03-20T07:18:47.031Z,1000.92
2017-03-20T07:19:46.970Z,1000.94
2017-03-20T07:20:46.906Z,1000.96
2017-03-20T07:21:46.845Z,1000.93
2017-03-20T07:22:46.788Z,1000.99
2017-03-20T07:23:46.719Z,1001.03
2017-03-20T07:24:46.658Z,1000.96
2017-03-20T07:25:46.597Z,1001.03
2017-03-20T07:26:46.535Z,1001.02
2017-03-20T07:27:46.472Z,1000.98
2017-03-20T07:28:46.410Z,1001.01
2017-03-20T07:29:46.356Z,1000.98
2017-03-20T07:30:46.286Z,1000.96
2017-03-20T07:31:46.224Z,1001.01
2017-03-20T07:32:46.163Z,1000.99
2017-03-20T07:33:46.101Z,1001
2017-03-20T07:34:46.037Z,1001.04
2017-03-20T07:35:45.975Z,1000.99
2017-03-20T07:36:45.914Z,1000.96
2017-03-20T07:37:45.852Z,1000.98
2017-03-20T07:38:45.790Z,1000.97
2017-03-20T07:39:45.729Z,1001
2017-03-20T07:40:45.665Z,1000.99
2017-03-20T07:41:45.615Z,1001.01
2017-03-20T07:42:45.542Z,1000.96
2017-03-20T07:43:45.480Z,1000.97
2017-03-20T07:44:45.418Z,1001.04
2017-03-20T07:45:45.505Z,1001.04
2017-03-20T07:46:45.296Z,1001.04
2017-03-20T07:47:45.231Z,1001.01
2017-03-20T07:48:45.170Z,1001
2017-03-20T07:49:45.108Z,1000.99
2017-03-20T07:50:45.045Z,1000.99
2017-03-20T07:51:44.983Z,1001.05
2017-03-20T07:52:44.922Z,1001.04
2017-03-20T07:53:44.859Z,1001.07
2017-03-20T07:54:44.798Z,1001.11
2017-03-20T07:55:44.736Z,1001.1
2017-03-20T07:56:44.673Z,1001.06
2017-03-20T07:57:44.610Z,1001.08
2017-03-20T07:58:44.549Z,1001.08
2017-03-20T07:59:44.488Z,1001
2017-03-20T08:00:44.425Z,1000.99
2017-03-20T08:01:44.364Z,1000.99
2017-03-20T08:02:44.302Z,1000.98
2017-03-20T08:03:44.240Z,1001
2017-03-20T08:04:44.177Z,1001.01
2017-03-20T08:05:44.116Z,1000.99
2017-03-20T08:06:44.053Z,1001.01
2017-03-20T08:07:44.242Z,1001.01
2017-03-20T08:08:43.929Z,1001.02
2017-03-20T08:09:43.867Z,1001.02
2017-03-20T08:10:43.806Z,1001
2017-03-20T08:11:43.743Z,1001.03
2017-03-20T08:12:43.681Z,1001.02
2017-03-20T08:13:43.619Z,1001.03
2017-03-20T08:14:43.556Z,1001.05
2017-03-20T08:15:43.494Z,1001.02
2017-03-20T08:16:43.433Z,1001.09
2017-03-20T08:17:43.374Z,1001.04
2017-03-20T08:18:43.309Z,1001.12
2017-03-20T08:19:43.247Z,1001.1
2017-03-20T08:20:43.184Z,1001.12
2017-03-20T08:21:43.122Z,1001.09
2017-03-20T08:22:43.062Z,1001.15
2017-03-20T08:23:42.999Z,1001.12
2017-03-20T08:24:42.937Z,1001.12
2017-03-20T08:25:42.874Z,1001.13
2017-03-20T08:26:42.813Z,1001.11
2017-03-20T08:27:42.751Z,1001.11
2017-03-20T08:28:42.693Z,1001.12
2017-03-20T08:29:42.627Z,1001.14
2017-03-20T08:30:42.564Z,1001.14
2017-03-20T08:31:42.503Z,1001.11
2017-03-20T08:32:42.440Z,1001.13
2017-03-20T08:33:42.379Z,1001.13
2017-03-20T08:34:42.316Z,1001.15
2017-03-20T08:35:42.255Z,1001.15
2017-03-20T08:36:42.192Z,1001.16
2017-03-20T08:37:42.133Z,1001.16
2017-03-20T08:38:42.069Z,1001.2
2017-03-20T08:39:42.006Z,1001.18
2017-03-20T08:40:41.944Z,1001.19
2017-03-20T08:41:41.882Z,1001.16
2017-03-20T08:42:41.821Z,1001.19
2017-03-20T08:43:41.760Z,1001.2
2017-03-20T08:44:41.696Z,1001.21
2017-03-20T08:45:41.634Z,1001.21
2017-03-20T08:46:41.574Z,1001.22
2017-03-20T08:47:41.510Z,1001.22
2017-03-20T08:48:41.448Z,1001.24
2017-03-20T08:49:41.386Z,1001.24
2017-03-20T08:50:41.325Z,1001.24
2017-03-20T08:51:41.261Z,1001.23
2017-03-20T08:52:41.200Z,1001.26
2017-03-20T08:53:41.140Z,1001.23
2017-03-20T08:54:41.076Z,1001.24
2017-03-20T08:55:41.015Z,1001.26
2017-03-20T08:56:40.953Z,1001.22
2017-03-20T08:57:40.892Z,1001.2
2017-03-20T08:58:40.829Z,1001.26
2017-03-20T08:59:40.768Z,1001.26
2017-03-20T09:00:40.706Z,1001.2
2017-03-20T09:01:40.643Z,1001.23
2017-03-20T09:02:40.582Z,1001.2
2017-03-20T09:03:40.519Z,1001.25
2017-03-20T09:04:40.457Z,1001.24
2017-03-20T09:05:40.395Z,1001.21
2017-03-20T09:06:40.333Z,1001.24
2017-03-20T09:07:40.271Z,1001.22
2017-03-20T09:08:40.210Z,1001.25
2017-03-20T09:09:40.146Z,1001.31
2017-03-20T09:10:40.084Z,1001.29
2017-03-20T09:11:40.023Z,1001.29
2017-03-20T09:12:39.962Z,1001.34
2017-03-20T09:13:39.899Z,1001.36
2017-03-20T09:14:39.837Z,1001.32
2017-03-20T09:15:39.774Z,1001.34
2017-03-20T09:16:39.712Z,1001.34
2017-03-20T09:17:39.650Z,1001.39
2017-03-20T09:18:39.589Z,1001.36
2017-03-20T09:19:39.527Z,1001.34
2017-03-20T09:20:39.765Z,1001.33
2017-03-20T09:21:39.402Z,1001.38
2017-03-20T09:22:39.341Z,1001.37
2017-03-20T09:23:39.280Z,1001.38
2017-03-20T09:24:39.566Z,1001.35
2017-03-20T09:25:39.208Z,1001.36
2017-03-20T09:26:39.125Z,1001.41
2017-03-20T09:27:39.030Z,1001.4
2017-03-20T09:28:38.968Z,1001.43
2017-03-20T09:29:38.906Z,1001.42
2017-03-20T09:30:38.947Z,1001.49
2017-03-20T09:31:38.783Z,1001.49
2017-03-20T09:32:38.722Z,1001.46
2017-03-20T09:33:38.660Z,1001.51
2017-03-20T09:34:38.598Z,1001.44
2017-03-20T09:35:38.839Z,1001.46
2017-03-20T09:36:38.472Z,1001.43
2017-03-20T09:37:38.412Z,1001.44
2017-03-20T09:38:38.351Z,1001.46
2017-03-20T09:39:38.289Z,1001.43
2017-03-20T09:40:38.230Z,1001.44
2017-03-20T09:41:38.164Z,1001.48
2017-03-20T09:42:38.109Z,1001.44
2017-03-20T09:43:38.045Z,1001.44
2017-03-20T09:44:37.977Z,1001.44
2017-03-20T09:45:37.927Z,1001.43
2017-03-20T09:46:37.853Z,1001.4
2017-03-20T09:47:37.791Z,1001.4
2017-03-20T09:48:37.732Z,1001.4
2017-03-20T09:49:37.666Z,1001.39
2017-03-20T09:50:37.648Z,1001.37
2017-03-20T09:51:37.544Z,1001.4
2017-03-20T09:52:37.481Z,1001.32
2017-03-20T09:53:37.419Z,1001.34
2017-03-20T09:54:37.357Z,1001.37
2017-03-20T09:55:37.297Z,1001.36
2017-03-20T09:56:37.234Z,1001.34
2017-03-20T09:57:37.174Z,1001.36
2017-03-20T09:58:37.110Z,1001.36
2017-03-20T09:59:37.089Z,1001.35
2017-03-20T10:00:36.985Z,1001.34
2017-03-20T10:01:36.932Z,1001.31
2017-03-20T10:02:36.861Z,1001.35
2017-03-20T10:03:36.800Z,1001.35
2017-03-20T10:04:36.738Z,1001.36
2017-03-20T10:05:36.676Z,1001.33
2017-03-20T10:06:36.615Z,1001.33
2017-03-20T10:07:36.553Z,1001.33
2017-03-20T10:08:36.489Z,1001.35
2017-03-20T10:09:36.428Z,1001.33
2017-03-20T10:10:36.615Z,1001.39
2017-03-20T10:11:36.303Z,1001.41
2017-03-20T10:12:36.242Z,1001.39
2017-03-20T10:13:36.181Z,1001.36
2017-03-20T10:14:36.119Z,1001.42
2017-03-20T10:15:36.306Z,1001.39
2017-03-20T10:16:35.994Z,1001.35
2017-03-20T10:17:35.933Z,1001.39
2017-03-20T10:18:35.876Z,1001.39
2017-03-20T10:19:35.809Z,1001.37
2017-03-20T10:20:35.747Z,1001.37
2017-03-20T10:21:35.685Z,1001.35
2017-03-20T10:22:35.628Z,1001.37
2017-03-20T10:23:35.562Z,1001.34
2017-03-20T10:24:35.503Z,1001.32
2017-03-20T10:25:35.439Z,1001.33
2017-03-20T10:26:35.376Z,1001.27
2017-03-20T10:27:35.314Z,1001.26
2017-03-20T10:28:35.254Z,1001.28
2017-03-20T10:29:35.194Z,1001.29
2017-03-20T10:30:35.131Z,1001.3
2017-03-20T10:31:35.068Z,1001.31
2017-03-20T10:32:35.006Z,1001.3
2017-03-20T10:33:34.944Z,1001.34
2017-03-20T10:34:34.883Z,1001.34
2017-03-20T10:35:34.821Z,1001.35
2017-03-20T10:36:34.759Z,1001.33
2017-03-20T10:37:34.697Z,1001.35
2017-03-20T10:38:34.636Z,1001.36
2017-03-20T10:39:34.574Z,1001.37
2017-03-20T10:40:34.513Z,1001.42
2017-03-20T10:41:34.450Z,1001.37
2017-03-20T10:42:34.389Z,1001.39
2017-03-20T10:43:34.328Z,1001.4
2017-03-20T10:44:34.263Z,1001.32
2017-03-20T10:45:34.203Z,1001.34
2017-03-20T10:46:34.141Z,1001.37
2017-03-20T10:47:34.080Z,1001.32
2017-03-20T10:48:34.018Z,1001.29
2017-03-20T10:49:33.985Z,1001.29
2017-03-20T10:50:33.897Z,1001.26
2017-03-20T10:51:33.833Z,1001.28
2017-03-20T10:52:33.771Z,1001.25
2017-03-20T10:53:33.710Z,1001.29
2017-03-20T10:54:33.648Z,1001.3
2017-03-20T10:55:33.584Z,1001.25
2017-03-20T10:56:33.524Z,1001.24
2017-03-20T10:57:33.464Z,1001.26
2017-03-20T10:58:33.401Z,1001.22
2017-03-20T10:59:33.338Z,1001.23
2017-03-20T11:00:33.276Z,1001.21
2017-03-20T11:01:33.214Z,1001.25
2017-03-20T11:02:33.152Z,1001.3
2017-03-20T11:03:33.091Z,1001.26
2017-03-20T11:04:33.029Z,1001.28
2017-03-20T11:05:32.968Z,1001.24
2017-03-20T11:06:32.906Z,1001.25
2017-03-20T11:07:32.845Z,1001.24
2017-03-20T11:08:32.784Z,1001.26
2017-03-20T11:09:32.723Z,1001.28
2017-03-20T11:10:32.679Z,1001.28
2017-03-20T11:11:32.598Z,1001.32
2017-03-20T11:12:32.537Z,1001.3
2017-03-20T11:13:32.475Z,1001.32
2017-03-20T11:14:32.418Z,1001.3
2017-03-20T11:15:32.363Z,1001.3
2017-03-20T11:16:32.288Z,1001.27
2017-03-20T11:17:32.227Z,1001.3
2017-03-20T11:18:32.165Z,1001.31
2017-03-20T11:19:32.104Z,1001.26
2017-03-20T11:20:32.043Z,1001.26
2017-03-20T11:21:31.980Z,1001.22
2017-03-20T11:22:31.919Z,1001.26
2017-03-20T11:23:31.861Z,1001.23
2017-03-20T11:24:31.794Z,1001.24
2017-03-20T11:25:32.082Z,1001.25
2017-03-20T11:26:31.672Z,1001.24
2017-03-20T11:27:31.610Z,1001.21
2017-03-20T11:28:31.548Z,1001.24
2017-03-20T11:29:31.487Z,1001.26
2017-03-20T11:30:31.676Z,1001.25
2017-03-20T11:31:31.364Z,1001.25
2017-03-20T11:32:31.302Z,1001.25
2017-03-20T11:33:31.239Z,1001.25
2017-03-20T11:34:31.177Z,1001.32
2017-03-20T11:35:31.115Z,1001.24
2017-03-20T11:36:31.054Z,1001.26
2017-03-20T11:37:30.992Z,1001.29
2017-03-20T11:38:30.931Z,1001.29
2017-03-20T11:39:30.868Z,1001.29
2017-03-20T11:40:30.807Z,1001.3
2017-03-20T11:41:30.746Z,1001.26
2017-03-20T11:42:30.697Z,1001.28
2017-03-20T11:43:30.628Z,1001.28
2017-03-20T11:44:30.561Z,1001.27
2017-03-20T11:45:30.499Z,1001.27
2017-03-20T11:46:30.437Z,1001.29
2017-03-20T11:47:30.379Z,1001.3
2017-03-20T11:48:30.314Z,1001.27
2017-03-20T11:49:30.253Z,1001.23
2017-03-20T11:50:30.225Z,1001.21
2017-03-20T11:51:30.128Z,1001.21
2017-03-20T11:52:30.067Z,1001.25
2017-03-20T11:53:30.006Z,1001.22
2017-03-20T11:54:29.943Z,1001.21
2017-03-20T11:55:29.882Z,1001.21
2017-03-20T11:56:29.821Z,1001.13
2017-03-20T11:57:29.757Z,1001.17
2017-03-20T11:58:29.696Z,1001.18
2017-03-20T11:59:29.634Z,1001.12
2017-03-20T12:00:29.574Z,1001.18
2017-03-20T12:01:29.511Z,1001.17
2017-03-20T12:02:29.450Z,1001.13
2017-03-20T12:03:29.389Z,1001.13
2017-03-20T12:04:29.327Z,1001.19
2017-03-20T12:05:29.566Z,1001.18
2017-03-20T12:06:29.207Z,1001.17
2017-03-20T12:07:29.142Z,1001.13
2017-03-20T12:08:29.080Z,1001.14
2017-03-20T12:09:29.019Z,1001.13
2017-03-20T12:10:28.957Z,1001.13
2017-03-20T12:11:28.896Z,1001.09
2017-03-20T12:12:28.833Z,1001.04
2017-03-20T12:13:28.772Z,1001.07
2017-03-20T12:14:28.709Z,1001.09
2017-03-20T12:15:28.648Z,1001.11
2017-03-20T12:16:28.586Z,1001.04